createdAt,value
2022-09-28T00:01:23.289Z,49
2022-09-28T00:11:30.812Z,50
2022-09-28T00:21:38.369Z,51
2022-09-28T00:31:45.935Z,51
2022-09-28T00:41:53.457Z,51
2022-09-28T00:52:01.068Z,52
2022-09-28T01:02:08.461Z,53
2022-09-28T01:12:15.840Z,53
2022-09-28T01:22:22.907Z,54
2022-09-28T01:32:29.517Z,55
2022-09-28T01:42:36.200Z,55
2022-09-28T01:52:42.822Z,55
2022-09-28T02:02:49.538Z,56
2022-09-28T02:12:56.287Z,57
2022-09-28T02:23:03.038Z,57
2022-09-28T02:33:10.626Z,57
2022-09-28T02:43:17.369Z,58
2022-09-28T02:53:24.013Z,57
2022-09-28T03:03:30.724Z,58
2022-09-28T03:13:37.329Z,58
2022-09-28T03:23:43.998Z,58
2022-09-28T03:33:51.766Z,58
2022-09-28T03:43:59.523Z,59
2022-09-28T03:54:06.147Z,59
2022-09-28T04:04:12.785Z,59
2022-09-28T04:14:19.458Z,59
2022-09-28T04:24:26.412Z,59
2022-09-28T04:34:35.854Z,59
2022-09-28T04:44:39.179Z,60
2022-09-28T04:54:46.931Z,60
2022-09-28T05:04:54.794Z,60
2022-09-28T05:15:01.482Z,61
2022-09-28T05:25:08.104Z,61
2022-09-28T05:35:14.826Z,61
2022-09-28T05:45:21.519Z,61
2022-09-28T05:55:28.680Z,61
2022-09-28T06:05:38.792Z,61
2022-09-28T06:15:36.826Z,62
2022-09-28T06:25:44.091Z,61
2022-09-28T06:35:54.266Z,61
2022-09-28T06:46:01.120Z,61
2022-09-28T06:56:09.024Z,60
2022-09-28T07:06:17.022Z,60
2022-09-28T07:16:27.995Z,60
2022-09-28T07:26:29.793Z,60
2022-09-28T07:36:36.649Z,59
2022-09-28T07:46:43.720Z,58
2022-09-28T07:56:53.102Z,57
2022-09-28T08:06:59.913Z,57
2022-09-28T08:17:06.705Z,55
2022-09-28T08:27:13.489Z,55
2022-09-28T08:37:20.283Z,53
2022-09-28T08:47:29.194Z,51
2022-09-28T08:57:35.946Z,52
2022-09-28T09:07:43.845Z,52
2022-09-28T09:17:50.952Z,51
2022-09-28T09:27:58.497Z,52
2022-09-28T09:38:06.048Z,51
2022-09-28T09:48:15.605Z,51
2022-09-28T09:58:23.228Z,50
2022-09-28T10:08:31.809Z,49
2022-09-28T10:18:40.493Z,49
2022-09-28T10:28:48.000Z,49
2022-09-28T10:38:56.610Z,49
2022-09-28T10:49:05.188Z,48
2022-09-28T10:59:12.842Z,48
2022-09-28T11:09:21.434Z,47
2022-09-28T11:19:28.151Z,47
2022-09-28T11:29:36.737Z,47
2022-09-28T11:39:44.397Z,45
2022-09-28T11:49:52.046Z,44
2022-09-28T11:59:59.944Z,44
2022-09-28T12:10:07.497Z,43
2022-09-28T12:20:15.075Z,43
2022-09-28T12:30:23.354Z,42
2022-09-28T12:40:31.048Z,40
2022-09-28T12:50:40.080Z,40
2022-09-28T13:00:44.578Z,40
2022-09-28T13:10:54.219Z,40
2022-09-28T13:20:55.508Z,38
2022-09-28T13:31:03.078Z,38
2022-09-28T13:41:11.335Z,37
2022-09-28T13:51:10.867Z,36
2022-09-28T14:01:20.415Z,36
2022-09-28T14:11:27.963Z,36
2022-09-28T14:21:35.580Z,36
2022-09-28T14:31:43.059Z,35
2022-09-28T14:41:50.678Z,34
2022-09-28T15:02:00.749Z,35
2022-09-28T15:12:08.286Z,35
2022-09-28T15:22:17.739Z,36
2022-09-28T15:32:17.945Z,35
2022-09-28T15:42:25.514Z,35
2022-09-28T15:52:33.467Z,36
2022-09-28T16:02:42.288Z,36
2022-09-28T16:12:49.912Z,36
2022-09-28T16:22:51.509Z,36
2022-09-28T16:33:00.252Z,36
2022-09-28T16:43:07.989Z,36
2022-09-28T16:53:16.610Z,36
2022-09-28T17:03:26.238Z,36
2022-09-28T17:13:34.940Z,36
2022-09-28T17:23:42.817Z,35
2022-09-28T17:33:58.552Z,35
2022-09-28T17:54:10.885Z,34
2022-09-28T18:04:40.084Z,34
2022-09-28T18:14:20.375Z,34
2022-09-28T18:24:31.121Z,35
2022-09-28T18:34:40.790Z,36
2022-09-28T18:44:39.841Z,35
2022-09-28T18:54:49.978Z,36
2022-09-28T19:04:53.071Z,37
2022-09-28T19:15:02.047Z,37
2022-09-28T19:25:07.180Z,37
2022-09-28T19:35:12.343Z,37
2022-09-28T19:45:16.479Z,37
2022-09-28T19:55:24.707Z,38
2022-09-28T20:05:25.137Z,38
2022-09-28T20:15:33.374Z,39
2022-09-28T20:25:42.074Z,39
2022-09-28T20:35:49.755Z,39
2022-09-28T20:45:57.543Z,40
2022-09-28T20:56:05.125Z,41
2022-09-28T21:06:12.442Z,41
2022-09-28T21:16:21.511Z,41
2022-09-28T21:26:30.242Z,41
2022-09-28T21:36:37.732Z,41
2022-09-28T21:46:45.689Z,41
2022-09-28T21:56:53.160Z,44
2022-09-28T22:07:01.039Z,47
2022-09-28T22:17:01.046Z,58
2022-09-28T22:27:10.595Z,60
2022-09-28T22:37:18.146Z,62
2022-09-28T22:47:25.617Z,62
2022-09-28T22:57:33.036Z,62
2022-09-28T23:07:40.486Z,61
2022-09-28T23:17:47.904Z,61
2022-09-28T23:27:55.418Z,61
2022-09-28T23:38:02.948Z,56
2022-09-28T23:48:10.440Z,55
2022-09-28T23:58:17.929Z,56
